sensor_id;sensor_type;location;lat;lon;timestamp;P1;durP1;ratioP1;P2;durP2;ratioP2
32347;SDS011;18821;44.800;10.326;2023-06-14T00:00:51;9.60;;;4.85;;
32347;SDS011;18821;44.800;10.326;2023-06-14T00:03:18;9.02;;;6.35;;
32347;SDS011;18821;44.800;10.326;2023-06-14T00:05:47;10.52;;;6.30;;
32347;SDS011;18821;44.800;10.326;2023-06-14T00:08:13;9.10;;;6.05;;
32347;SDS011;18821;44.800;10.326;2023-06-14T00:10:40;13.15;;;8.13;;
32347;SDS011;18821;44.800;10.326;2023-06-14T00:13:09;15.25;;;8.52;;
32347;SDS011;18821;44.800;10.326;2023-06-14T00:15:35;12.60;;;8.20;;
32347;SDS011;18821;44.800;10.326;2023-06-14T00:18:01;12.25;;;7.57;;
32347;SDS011;18821;44.800;10.326;2023-06-14T00:20:28;13.32;;;8.70;;
32347;SDS011;18821;44.800;10.326;2023-06-14T00:22:56;12.40;;;8.25;;
32347;SDS011;18821;44.800;10.326;2023-06-14T00:25:22;13.07;;;8.15;;
32347;SDS011;18821;44.800;10.326;2023-06-14T00:27:51;12.18;;;8.13;;
32347;SDS011;18821;44.800;10.326;2023-06-14T00:30:18;10.05;;;7.88;;
32347;SDS011;18821;44.800;10.326;2023-06-14T00:32:44;9.60;;;6.70;;
32347;SDS011;18821;44.800;10.326;2023-06-14T00:35:11;14.23;;;7.25;;
32347;SDS011;18821;44.800;10.326;2023-06-14T00:37:37;9.48;;;6.95;;
32347;SDS011;18821;44.800;10.326;2023-06-14T00:40:03;14.45;;;6.22;;
32347;SDS011;18821;44.800;10.326;2023-06-14T00:42:30;12.90;;;6.63;;
32347;SDS011;18821;44.800;10.326;2023-06-14T00:44:56;10.90;;;5.97;;
32347;SDS011;18821;44.800;10.326;2023-06-14T00:47:23;14.13;;;6.40;;
32347;SDS011;18821;44.800;10.326;2023-06-14T00:49:50;13.35;;;6.45;;
32347;SDS011;18821;44.800;10.326;2023-06-14T00:52:17;10.40;;;5.90;;
32347;SDS011;18821;44.800;10.326;2023-06-14T00:54:44;8.93;;;6.13;;
32347;SDS011;18821;44.800;10.326;2023-06-14T00:57:10;10.52;;;5.65;;
32347;SDS011;18821;44.800;10.326;2023-06-14T00:59:44;12.38;;;5.63;;
32347;SDS011;18821;44.800;10.326;2023-06-14T01:02:11;11.32;;;6.03;;
32347;SDS011;18821;44.800;10.326;2023-06-14T01:04:38;8.20;;;5.88;;
32347;SDS011;18821;44.800;10.326;2023-06-14T01:10:16;10.05;;;5.57;;
32347;SDS011;18821;44.800;10.326;2023-06-14T01:12:58;14.32;;;7.10;;
32347;SDS011;18821;44.800;10.326;2023-06-14T01:15:31;13.48;;;5.50;;
32347;SDS011;18821;44.800;10.326;2023-06-14T01:17:57;14.95;;;5.38;;
32347;SDS011;18821;44.800;10.326;2023-06-14T01:20:29;8.63;;;5.72;;
32347;SDS011;18821;44.800;10.326;2023-06-14T01:22:57;11.48;;;4.68;;
32347;SDS011;18821;44.800;10.326;2023-06-14T01:25:24;9.68;;;5.70;;
32347;SDS011;18821;44.800;10.326;2023-06-14T01:28:00;10.93;;;5.93;;
32347;SDS011;18821;44.800;10.326;2023-06-14T01:30:29;11.68;;;5.00;;
32347;SDS011;18821;44.800;10.326;2023-06-14T01:32:56;15.25;;;4.60;;
32347;SDS011;18821;44.800;10.326;2023-06-14T01:35:23;7.85;;;4.90;;
32347;SDS011;18821;44.800;10.326;2023-06-14T01:37:49;10.50;;;4.97;;
32347;SDS011;18821;44.800;10.326;2023-06-14T01:40:17;12.60;;;5.22;;
32347;SDS011;18821;44.800;10.326;2023-06-14T01:42:46;13.32;;;4.43;;
32347;SDS011;18821;44.800;10.326;2023-06-14T01:45:13;11.90;;;4.57;;
32347;SDS011;18821;44.800;10.326;2023-06-14T01:47:40;13.82;;;4.80;;
32347;SDS011;18821;44.800;10.326;2023-06-14T01:50:06;12.07;;;4.85;;
32347;SDS011;18821;44.800;10.326;2023-06-14T01:52:33;15.63;;;4.35;;
32347;SDS011;18821;44.800;10.326;2023-06-14T01:54:59;5.47;;;4.07;;
32347;SDS011;18821;44.800;10.326;2023-06-14T01:57:28;9.02;;;5.07;;
32347;SDS011;18821;44.800;10.326;2023-06-14T01:59:54;12.43;;;4.72;;
32347;SDS011;18821;44.800;10.326;2023-06-14T02:02:20;6.55;;;4.47;;
32347;SDS011;18821;44.800;10.326;2023-06-14T02:04:46;11.23;;;4.43;;
32347;SDS011;18821;44.800;10.326;2023-06-14T02:07:13;11.43;;;4.50;;
32347;SDS011;18821;44.800;10.326;2023-06-14T02:09:41;14.32;;;4.40;;
32347;SDS011;18821;44.800;10.326;2023-06-14T02:12:07;14.63;;;4.20;;
32347;SDS011;18821;44.800;10.326;2023-06-14T02:14:33;11.80;;;4.25;;
32347;SDS011;18821;44.800;10.326;2023-06-14T02:16:59;7.47;;;4.65;;
32347;SDS011;18821;44.800;10.326;2023-06-14T02:19:26;16.05;;;4.95;;
32347;SDS011;18821;44.800;10.326;2023-06-14T02:21:52;13.90;;;5.05;;
32347;SDS011;18821;44.800;10.326;2023-06-14T02:24:18;12.68;;;5.28;;
32347;SDS011;18821;44.800;10.326;2023-06-14T02:26:45;14.80;;;4.90;;
32347;SDS011;18821;44.800;10.326;2023-06-14T02:29:14;12.60;;;5.03;;
32347;SDS011;18821;44.800;10.326;2023-06-14T02:31:41;19.98;;;4.90;;
32347;SDS011;18821;44.800;10.326;2023-06-14T02:34:07;10.60;;;4.28;;
32347;SDS011;18821;44.800;10.326;2023-06-14T02:36:35;10.05;;;5.40;;
32347;SDS011;18821;44.800;10.326;2023-06-14T02:39:07;11.20;;;6.07;;
32347;SDS011;18821;44.800;10.326;2023-06-14T02:41:37;9.75;;;5.50;;
32347;SDS011;18821;44.800;10.326;2023-06-14T02:44:03;9.25;;;6.50;;
32347;SDS011;18821;44.800;10.326;2023-06-14T02:46:29;12.75;;;6.13;;
32347;SDS011;18821;44.800;10.326;2023-06-14T02:48:55;15.23;;;6.90;;
32347;SDS011;18821;44.800;10.326;2023-06-14T02:51:21;11.63;;;6.80;;
32347;SDS011;18821;44.800;10.326;2023-06-14T02:53:47;13.48;;;7.65;;
32347;SDS011;18821;44.800;10.326;2023-06-14T02:56:13;11.95;;;7.28;;
32347;SDS011;18821;44.800;10.326;2023-06-14T02:58:40;18.75;;;7.20;;
32347;SDS011;18821;44.800;10.326;2023-06-14T03:01:06;12.00;;;7.78;;
32347;SDS011;18821;44.800;10.326;2023-06-14T03:03:34;18.20;;;9.07;;
32347;SDS011;18821;44.800;10.326;2023-06-14T03:06:00;16.13;;;7.43;;
32347;SDS011;18821;44.800;10.326;2023-06-14T03:08:31;18.40;;;7.93;;
32347;SDS011;18821;44.800;10.326;2023-06-14T03:11:06;13.18;;;8.65;;
32347;SDS011;18821;44.800;10.326;2023-06-14T03:13:34;18.48;;;9.20;;
32347;SDS011;18821;44.800;10.326;2023-06-14T03:16:02;18.23;;;8.48;;
32347;SDS011;18821;44.800;10.326;2023-06-14T03:18:30;13.45;;;8.70;;
32347;SDS011;18821;44.800;10.326;2023-06-14T03:21:01;19.23;;;8.18;;
32347;SDS011;18821;44.800;10.326;2023-06-14T03:23:29;16.38;;;8.68;;
32347;SDS011;18821;44.800;10.326;2023-06-14T03:25:55;15.60;;;8.32;;
32347;SDS011;18821;44.800;10.326;2023-06-14T03:28:22;13.13;;;8.55;;
32347;SDS011;18821;44.800;10.326;2023-06-14T03:30:49;14.00;;;8.35;;
32347;SDS011;18821;44.800;10.326;2023-06-14T03:33:15;15.25;;;9.13;;
32347;SDS011;18821;44.800;10.326;2023-06-14T03:35:41;17.80;;;9.70;;
32347;SDS011;18821;44.800;10.326;2023-06-14T03:38:08;13.23;;;8.68;;
32347;SDS011;18821;44.800;10.326;2023-06-14T03:40:35;14.40;;;8.40;;
32347;SDS011;18821;44.800;10.326;2023-06-14T03:43:03;12.75;;;7.82;;
32347;SDS011;18821;44.800;10.326;2023-06-14T03:45:29;13.02;;;8.00;;
32347;SDS011;18821;44.800;10.326;2023-06-14T03:47:57;9.63;;;7.88;;
32347;SDS011;18821;44.800;10.326;2023-06-14T03:50:23;18.95;;;7.80;;
32347;SDS011;18821;44.800;10.326;2023-06-14T03:52:50;12.48;;;8.27;;
32347;SDS011;18821;44.800;10.326;2023-06-14T03:55:17;11.80;;;7.78;;
32347;SDS011;18821;44.800;10.326;2023-06-14T03:57:44;12.00;;;7.78;;
32347;SDS011;18821;44.800;10.326;2023-06-14T04:00:13;18.13;;;8.55;;
32347;SDS011;18821;44.800;10.326;2023-06-14T04:02:40;16.27;;;8.32;;
32347;SDS011;18821;44.800;10.326;2023-06-14T04:05:08;18.50;;;9.05;;
32347;SDS011;18821;44.800;10.326;2023-06-14T04:07:36;14.30;;;8.18;;
32347;SDS011;18821;44.800;10.326;2023-06-14T04:10:10;15.25;;;8.30;;
32347;SDS011;18821;44.800;10.326;2023-06-14T04:12:38;18.30;;;8.05;;
32347;SDS011;18821;44.800;10.326;2023-06-14T04:15:04;11.00;;;7.20;;
32347;SDS011;18821;44.800;10.326;2023-06-14T04:17:35;14.00;;;6.40;;
32347;SDS011;18821;44.800;10.326;2023-06-14T04:20:03;12.35;;;6.70;;
32347;SDS011;18821;44.800;10.326;2023-06-14T04:22:30;10.40;;;6.25;;
32347;SDS011;18821;44.800;10.326;2023-06-14T04:24:58;9.73;;;5.60;;
32347;SDS011;18821;44.800;10.326;2023-06-14T04:27:26;10.02;;;6.00;;
32347;SDS011;18821;44.800;10.326;2023-06-14T04:29:53;12.98;;;6.47;;
32347;SDS011;18821;44.800;10.326;2023-06-14T04:32:23;8.20;;;5.70;;
32347;SDS011;18821;44.800;10.326;2023-06-14T04:34:55;11.43;;;5.93;;
32347;SDS011;18821;44.800;10.326;2023-06-14T04:37:23;10.75;;;5.35;;
32347;SDS011;18821;44.800;10.326;2023-06-14T04:39:50;13.50;;;5.95;;
32347;SDS011;18821;44.800;10.326;2023-06-14T04:42:17;12.13;;;6.03;;
32347;SDS011;18821;44.800;10.326;2023-06-14T04:44:46;11.25;;;5.60;;
32347;SDS011;18821;44.800;10.326;2023-06-14T04:47:14;7.97;;;5.32;;
32347;SDS011;18821;44.800;10.326;2023-06-14T04:49:42;7.95;;;5.60;;
32347;SDS011;18821;44.800;10.326;2023-06-14T04:52:08;16.25;;;6.28;;
32347;SDS011;18821;44.800;10.326;2023-06-14T04:54:39;11.77;;;6.07;;
32347;SDS011;18821;44.800;10.326;2023-06-14T04:57:09;10.40;;;5.85;;
32347;SDS011;18821;44.800;10.326;2023-06-14T04:59:39;12.80;;;6.55;;
32347;SDS011;18821;44.800;10.326;2023-06-14T05:02:07;10.25;;;6.50;;
32347;SDS011;18821;44.800;10.326;2023-06-14T05:04:34;13.25;;;6.68;;
32347;SDS011;18821;44.800;10.326;2023-06-14T05:07:00;12.25;;;6.80;;
32347;SDS011;18821;44.800;10.326;2023-06-14T05:09:28;11.73;;;6.97;;
32347;SDS011;18821;44.800;10.326;2023-06-14T05:11:54;15.05;;;6.93;;
32347;SDS011;18821;44.800;10.326;2023-06-14T05:14:21;13.63;;;7.05;;
32347;SDS011;18821;44.800;10.326;2023-06-14T05:16:49;12.55;;;7.03;;
32347;SDS011;18821;44.800;10.326;2023-06-14T05:19:15;14.38;;;8.13;;
32347;SDS011;18821;44.800;10.326;2023-06-14T05:21:43;14.80;;;8.88;;
32347;SDS011;18821;44.800;10.326;2023-06-14T05:24:09;15.73;;;8.27;;
32347;SDS011;18821;44.800;10.326;2023-06-14T05:26:35;13.65;;;8.90;;
32347;SDS011;18821;44.800;10.326;2023-06-14T05:29:01;19.17;;;9.13;;
32347;SDS011;18821;44.800;10.326;2023-06-14T05:31:28;13.50;;;8.15;;
32347;SDS011;18821;44.800;10.326;2023-06-14T05:33:54;13.90;;;8.18;;
32347;SDS011;18821;44.800;10.326;2023-06-14T05:36:22;15.57;;;8.82;;
32347;SDS011;18821;44.800;10.326;2023-06-14T05:38:49;13.13;;;8.70;;
32347;SDS011;18821;44.800;10.326;2023-06-14T05:41:16;14.43;;;9.13;;
32347;SDS011;18821;44.800;10.326;2023-06-14T05:43:42;16.02;;;9.30;;
32347;SDS011;18821;44.800;10.326;2023-06-14T05:46:08;15.77;;;9.68;;
32347;SDS011;18821;44.800;10.326;2023-06-14T05:48:34;12.70;;;9.00;;
32347;SDS011;18821;44.800;10.326;2023-06-14T05:51:00;12.88;;;8.40;;
32347;SDS011;18821;44.800;10.326;2023-06-14T05:53:26;15.02;;;8.70;;
32347;SDS011;18821;44.800;10.326;2023-06-14T05:55:51;21.52;;;10.73;;
32347;SDS011;18821;44.800;10.326;2023-06-14T05:58:20;18.98;;;12.55;;
32347;SDS011;18821;44.800;10.326;2023-06-14T06:00:47;17.42;;;12.52;;
32347;SDS011;18821;44.800;10.326;2023-06-14T06:03:13;18.10;;;11.80;;
32347;SDS011;18821;44.800;10.326;2023-06-14T06:05:39;17.60;;;10.80;;
32347;SDS011;18821;44.800;10.326;2023-06-14T06:08:05;20.77;;;11.00;;
32347;SDS011;18821;44.800;10.326;2023-06-14T06:10:31;15.35;;;10.68;;
32347;SDS011;18821;44.800;10.326;2023-06-14T06:12:57;16.45;;;10.35;;
32347;SDS011;18821;44.800;10.326;2023-06-14T06:15:23;12.57;;;10.13;;
32347;SDS011;18821;44.800;10.326;2023-06-14T06:17:49;16.45;;;10.35;;
32347;SDS011;18821;44.800;10.326;2023-06-14T06:20:16;17.85;;;10.13;;
32347;SDS011;18821;44.800;10.326;2023-06-14T06:22:42;17.35;;;10.07;;
32347;SDS011;18821;44.800;10.326;2023-06-14T06:25:08;11.82;;;9.45;;
32347;SDS011;18821;44.800;10.326;2023-06-14T06:27:35;14.65;;;9.68;;
32347;SDS011;18821;44.800;10.326;2023-06-14T06:30:03;13.35;;;9.30;;
32347;SDS011;18821;44.800;10.326;2023-06-14T06:32:29;14.68;;;9.15;;
32347;SDS011;18821;44.800;10.326;2023-06-14T06:34:55;17.90;;;8.50;;
32347;SDS011;18821;44.800;10.326;2023-06-14T06:37:21;17.15;;;9.45;;
32347;SDS011;18821;44.800;10.326;2023-06-14T06:39:47;14.80;;;8.98;;
32347;SDS011;18821;44.800;10.326;2023-06-14T06:42:13;14.57;;;7.68;;
32347;SDS011;18821;44.800;10.326;2023-06-14T06:44:41;12.10;;;7.95;;
32347;SDS011;18821;44.800;10.326;2023-06-14T06:47:07;13.85;;;8.07;;
32347;SDS011;18821;44.800;10.326;2023-06-14T06:49:35;12.38;;;7.13;;
32347;SDS011;18821;44.800;10.326;2023-06-14T06:52:01;10.90;;;8.77;;
32347;SDS011;18821;44.800;10.326;2023-06-14T06:54:28;14.82;;;8.13;;
32347;SDS011;18821;44.800;10.326;2023-06-14T06:56:54;9.50;;;7.72;;
32347;SDS011;18821;44.800;10.326;2023-06-14T06:59:20;9.55;;;7.28;;
32347;SDS011;18821;44.800;10.326;2023-06-14T07:01:46;9.55;;;7.35;;
32347;SDS011;18821;44.800;10.326;2023-06-14T07:04:13;9.27;;;6.50;;
32347;SDS011;18821;44.800;10.326;2023-06-14T07:06:39;12.93;;;7.25;;
32347;SDS011;18821;44.800;10.326;2023-06-14T07:09:05;9.80;;;6.75;;
32347;SDS011;18821;44.800;10.326;2023-06-14T07:11:33;8.52;;;6.30;;
32347;SDS011;18821;44.800;10.326;2023-06-14T07:13:59;12.52;;;7.47;;
32347;SDS011;18821;44.800;10.326;2023-06-14T07:16:25;12.82;;;8.43;;
32347;SDS011;18821;44.800;10.326;2023-06-14T07:18:51;10.93;;;7.47;;
32347;SDS011;18821;44.800;10.326;2023-06-14T07:21:17;14.73;;;8.32;;
32347;SDS011;18821;44.800;10.326;2023-06-14T07:23:43;12.77;;;8.43;;
32347;SDS011;18821;44.800;10.326;2023-06-14T07:26:09;9.90;;;7.40;;
32347;SDS011;18821;44.800;10.326;2023-06-14T07:28:35;10.73;;;7.85;;
32347;SDS011;18821;44.800;10.326;2023-06-14T07:31:01;19.30;;;8.55;;
32347;SDS011;18821;44.800;10.326;2023-06-14T07:33:27;14.27;;;8.68;;
32347;SDS011;18821;44.800;10.326;2023-06-14T07:35:54;15.25;;;9.77;;
32347;SDS011;18821;44.800;10.326;2023-06-14T07:38:20;38.58;;;16.83;;
32347;SDS011;18821;44.800;10.326;2023-06-14T07:40:46;14.98;;;10.55;;
32347;SDS011;18821;44.800;10.326;2023-06-14T07:43:12;15.05;;;11.52;;
32347;SDS011;18821;44.800;10.326;2023-06-14T07:45:38;16.50;;;11.65;;
32347;SDS011;18821;44.800;10.326;2023-06-14T07:48:04;16.02;;;10.10;;
32347;SDS011;18821;44.800;10.326;2023-06-14T07:50:30;24.02;;;12.85;;
32347;SDS011;18821;44.800;10.326;2023-06-14T07:52:56;20.20;;;13.40;;
32347;SDS011;18821;44.800;10.326;2023-06-14T07:55:22;22.52;;;14.38;;
32347;SDS011;18821;44.800;10.326;2023-06-14T07:57:48;22.73;;;16.25;;
32347;SDS011;18821;44.800;10.326;2023-06-14T08:00:14;23.90;;;17.35;;
32347;SDS011;18821;44.800;10.326;2023-06-14T08:02:41;27.55;;;17.15;;
32347;SDS011;18821;44.800;10.326;2023-06-14T08:05:09;27.92;;;18.13;;
32347;SDS011;18821;44.800;10.326;2023-06-14T08:07:39;22.52;;;17.42;;
32347;SDS011;18821;44.800;10.326;2023-06-14T08:10:05;28.30;;;17.77;;
32347;SDS011;18821;44.800;10.326;2023-06-14T08:12:32;22.65;;;17.67;;
32347;SDS011;18821;44.800;10.326;2023-06-14T08:14:59;27.10;;;18.77;;
32347;SDS011;18821;44.800;10.326;2023-06-14T08:17:25;28.55;;;19.73;;
32347;SDS011;18821;44.800;10.326;2023-06-14T08:19:50;28.65;;;20.23;;
32347;SDS011;18821;44.800;10.326;2023-06-14T08:22:17;30.55;;;20.98;;
32347;SDS011;18821;44.800;10.326;2023-06-14T08:24:43;32.90;;;20.23;;
32347;SDS011;18821;44.800;10.326;2023-06-14T08:27:09;35.03;;;21.98;;
32347;SDS011;18821;44.800;10.326;2023-06-14T08:29:35;28.88;;;22.42;;
32347;SDS011;18821;44.800;10.326;2023-06-14T08:32:03;31.20;;;23.05;;
32347;SDS011;18821;44.800;10.326;2023-06-14T08:34:30;31.73;;;24.45;;
32347;SDS011;18821;44.800;10.326;2023-06-14T08:36:56;35.17;;;24.65;;
32347;SDS011;18821;44.800;10.326;2023-06-14T08:39:22;32.70;;;24.60;;
32347;SDS011;18821;44.800;10.326;2023-06-14T08:41:48;38.60;;;27.23;;
32347;SDS011;18821;44.800;10.326;2023-06-14T08:44:17;31.65;;;22.50;;
32347;SDS011;18821;44.800;10.326;2023-06-14T08:46:43;33.63;;;24.42;;
32347;SDS011;18821;44.800;10.326;2023-06-14T08:49:11;34.17;;;26.33;;
32347;SDS011;18821;44.800;10.326;2023-06-14T08:51:38;35.38;;;27.58;;
32347;SDS011;18821;44.800;10.326;2023-06-14T08:54:05;34.75;;;24.85;;
32347;SDS011;18821;44.800;10.326;2023-06-14T08:56:32;34.50;;;26.25;;
32347;SDS011;18821;44.800;10.326;2023-06-14T08:58:59;33.63;;;26.25;;
32347;SDS011;18821;44.800;10.326;2023-06-14T09:01:33;32.28;;;24.98;;
32347;SDS011;18821;44.800;10.326;2023-06-14T09:04:00;30.60;;;23.60;;
32347;SDS011;18821;44.800;10.326;2023-06-14T09:06:27;29.30;;;22.23;;
32347;SDS011;18821;44.800;10.326;2023-06-14T09:08:55;33.70;;;23.52;;
32347;SDS011;18821;44.800;10.326;2023-06-14T09:11:24;29.98;;;21.13;;
32347;SDS011;18821;44.800;10.326;2023-06-14T09:13:51;27.85;;;21.50;;
32347;SDS011;18821;44.800;10.326;2023-06-14T09:16:17;28.52;;;22.55;;
32347;SDS011;18821;44.800;10.326;2023-06-14T09:18:44;26.05;;;18.95;;
32347;SDS011;18821;44.800;10.326;2023-06-14T09:21:16;19.80;;;16.83;;
32347;SDS011;18821;44.800;10.326;2023-06-14T09:23:43;24.55;;;17.40;;
32347;SDS011;18821;44.800;10.326;2023-06-14T09:26:12;21.40;;;17.02;;
32347;SDS011;18821;44.800;10.326;2023-06-14T09:28:43;21.25;;;16.25;;
32347;SDS011;18821;44.800;10.326;2023-06-14T09:31:11;19.00;;;15.13;;
32347;SDS011;18821;44.800;10.326;2023-06-14T09:33:38;18.77;;;15.07;;
32347;SDS011;18821;44.800;10.326;2023-06-14T09:36:16;16.83;;;13.68;;
32347;SDS011;18821;44.800;10.326;2023-06-14T09:38:56;16.48;;;10.80;;
32347;SDS011;18821;44.800;10.326;2023-06-14T09:41:33;17.08;;;12.00;;
32347;SDS011;18821;44.800;10.326;2023-06-14T09:44:01;20.85;;;12.35;;
32347;SDS011;18821;44.800;10.326;2023-06-14T09:46:29;16.00;;;12.70;;
32347;SDS011;18821;44.800;10.326;2023-06-14T09:48:56;18.50;;;13.23;;
32347;SDS011;18821;44.800;10.326;2023-06-14T09:51:23;18.08;;;13.60;;
32347;SDS011;18821;44.800;10.326;2023-06-14T09:53:49;17.25;;;13.40;;
32347;SDS011;18821;44.800;10.326;2023-06-14T09:56:17;16.17;;;13.75;;
32347;SDS011;18821;44.800;10.326;2023-06-14T09:58:58;15.30;;;11.57;;
32347;SDS011;18821;44.800;10.326;2023-06-14T10:01:25;12.35;;;10.07;;
32347;SDS011;18821;44.800;10.326;2023-06-14T10:04:00;13.38;;;10.25;;
32347;SDS011;18821;44.800;10.326;2023-06-14T10:06:31;14.00;;;11.05;;
32347;SDS011;18821;44.800;10.326;2023-06-14T10:09:01;11.10;;;9.93;;
32347;SDS011;18821;44.800;10.326;2023-06-14T10:11:31;12.70;;;10.27;;
32347;SDS011;18821;44.800;10.326;2023-06-14T10:13:57;12.07;;;9.98;;
32347;SDS011;18821;44.800;10.326;2023-06-14T10:19:07;14.30;;;10.00;;
32347;SDS011;18821;44.800;10.326;2023-06-14T10:22:06;14.02;;;10.68;;
32347;SDS011;18821;44.800;10.326;2023-06-14T10:24:43;11.88;;;9.68;;
32347;SDS011;18821;44.800;10.326;2023-06-14T10:27:11;12.33;;;9.97;;
32347;SDS011;18821;44.800;10.326;2023-06-14T10:32:23;14.50;;;12.05;;
32347;SDS011;18821;44.800;10.326;2023-06-14T10:35:05;17.60;;;13.93;;
32347;SDS011;18821;44.800;10.326;2023-06-14T10:37:32;22.13;;;16.55;;
32347;SDS011;18821;44.800;10.326;2023-06-14T10:39:58;18.17;;;13.73;;
32347;SDS011;18821;44.800;10.326;2023-06-14T10:42:29;26.55;;;14.13;;
32347;SDS011;18821;44.800;10.326;2023-06-14T10:44:58;17.35;;;13.57;;
32347;SDS011;18821;44.800;10.326;2023-06-14T10:47:30;20.85;;;17.50;;
32347;SDS011;18821;44.800;10.326;2023-06-14T10:50:02;18.63;;;14.63;;
32347;SDS011;18821;44.800;10.326;2023-06-14T10:52:32;16.38;;;14.05;;
32347;SDS011;18821;44.800;10.326;2023-06-14T10:57:32;20.98;;;15.48;;
32347;SDS011;18821;44.800;10.326;2023-06-14T10:59:59;18.27;;;14.60;;
32347;SDS011;18821;44.800;10.326;2023-06-14T11:05:14;17.75;;;13.98;;
32347;SDS011;18821;44.800;10.326;2023-06-14T11:07:55;13.52;;;11.52;;
32347;SDS011;18821;44.800;10.326;2023-06-14T11:10:43;13.15;;;11.30;;
32347;SDS011;18821;44.800;10.326;2023-06-14T11:13:10;15.73;;;13.13;;
32347;SDS011;18821;44.800;10.326;2023-06-14T11:15:37;18.40;;;13.65;;
32347;SDS011;18821;44.800;10.326;2023-06-14T11:18:04;12.00;;;9.32;;
32347;SDS011;18821;44.800;10.326;2023-06-14T11:20:32;18.52;;;10.38;;
32347;SDS011;18821;44.800;10.326;2023-06-14T11:22:59;11.23;;;8.77;;
32347;SDS011;18821;44.800;10.326;2023-06-14T11:25:25;13.45;;;10.60;;
32347;SDS011;18821;44.800;10.326;2023-06-14T11:27:53;12.68;;;9.82;;
32347;SDS011;18821;44.800;10.326;2023-06-14T11:30:20;14.15;;;11.15;;
32347;SDS011;18821;44.800;10.326;2023-06-14T11:32:48;10.55;;;8.95;;
32347;SDS011;18821;44.800;10.326;2023-06-14T11:35:16;15.07;;;10.30;;
32347;SDS011;18821;44.800;10.326;2023-06-14T11:37:43;12.82;;;8.65;;
32347;SDS011;18821;44.800;10.326;2023-06-14T11:40:10;11.63;;;8.80;;
32347;SDS011;18821;44.800;10.326;2023-06-14T11:42:37;9.27;;;7.28;;
32347;SDS011;18821;44.800;10.326;2023-06-14T11:45:08;10.65;;;7.80;;
32347;SDS011;18821;44.800;10.326;2023-06-14T11:47:36;11.85;;;8.38;;
32347;SDS011;18821;44.800;10.326;2023-06-14T11:50:04;12.23;;;8.80;;
32347;SDS011;18821;44.800;10.326;2023-06-14T11:52:32;10.73;;;9.63;;
32347;SDS011;18821;44.800;10.326;2023-06-14T11:54:58;11.98;;;8.32;;
32347;SDS011;18821;44.800;10.326;2023-06-14T11:57:24;12.18;;;8.52;;
32347;SDS011;18821;44.800;10.326;2023-06-14T11:59:51;12.88;;;9.88;;
32347;SDS011;18821;44.800;10.326;2023-06-14T12:02:17;12.75;;;9.80;;
32347;SDS011;18821;44.800;10.326;2023-06-14T12:04:46;12.40;;;8.80;;
32347;SDS011;18821;44.800;10.326;2023-06-14T12:07:14;10.75;;;8.40;;
32347;SDS011;18821;44.800;10.326;2023-06-14T12:12:23;10.25;;;7.25;;
32347;SDS011;18821;44.800;10.326;2023-06-14T12:14:57;6.78;;;6.03;;
32347;SDS011;18821;44.800;10.326;2023-06-14T12:17:23;7.20;;;5.45;;
32347;SDS011;18821;44.800;10.326;2023-06-14T12:19:49;9.73;;;4.95;;
32347;SDS011;18821;44.800;10.326;2023-06-14T12:22:16;5.60;;;4.85;;
32347;SDS011;18821;44.800;10.326;2023-06-14T12:24:43;6.93;;;5.22;;
32347;SDS011;18821;44.800;10.326;2023-06-14T12:27:09;6.07;;;4.65;;
32347;SDS011;18821;44.800;10.326;2023-06-14T12:29:37;6.45;;;4.57;;
32347;SDS011;18821;44.800;10.326;2023-06-14T12:32:03;7.97;;;5.97;;
32347;SDS011;18821;44.800;10.326;2023-06-14T12:34:30;6.43;;;5.72;;
32347;SDS011;18821;44.800;10.326;2023-06-14T12:36:56;6.95;;;4.43;;
32347;SDS011;18821;44.800;10.326;2023-06-14T12:39:22;7.97;;;4.95;;
32347;SDS011;18821;44.800;10.326;2023-06-14T12:41:49;7.03;;;4.43;;
32347;SDS011;18821;44.800;10.326;2023-06-14T12:44:15;5.10;;;3.58;;
32347;SDS011;18821;44.800;10.326;2023-06-14T12:46:42;6.95;;;4.40;;
32347;SDS011;18821;44.800;10.326;2023-06-14T12:49:10;8.35;;;4.75;;
32347;SDS011;18821;44.800;10.326;2023-06-14T12:51:40;6.15;;;3.83;;
32347;SDS011;18821;44.800;10.326;2023-06-14T12:54:06;12.70;;;5.80;;
32347;SDS011;18821;44.800;10.326;2023-06-14T12:56:32;7.60;;;5.00;;
32347;SDS011;18821;44.800;10.326;2023-06-14T12:58:58;5.88;;;5.25;;
32347;SDS011;18821;44.800;10.326;2023-06-14T13:01:24;6.45;;;5.18;;
32347;SDS011;18821;44.800;10.326;2023-06-14T13:03:51;10.32;;;5.10;;
32347;SDS011;18821;44.800;10.326;2023-06-14T13:06:20;9.50;;;6.47;;
32347;SDS011;18821;44.800;10.326;2023-06-14T13:08:48;8.60;;;6.53;;
32347;SDS011;18821;44.800;10.326;2023-06-14T13:11:14;7.70;;;6.03;;
32347;SDS011;18821;44.800;10.326;2023-06-14T13:13:40;7.15;;;5.45;;
32347;SDS011;18821;44.800;10.326;2023-06-14T13:16:06;7.80;;;6.07;;
32347;SDS011;18821;44.800;10.326;2023-06-14T13:18:33;8.55;;;5.35;;
32347;SDS011;18821;44.800;10.326;2023-06-14T13:20:59;6.90;;;5.70;;
32347;SDS011;18821;44.800;10.326;2023-06-14T13:23:25;5.75;;;5.05;;
32347;SDS011;18821;44.800;10.326;2023-06-14T13:25:51;6.63;;;5.05;;
32347;SDS011;18821;44.800;10.326;2023-06-14T13:28:17;6.57;;;4.90;;
32347;SDS011;18821;44.800;10.326;2023-06-14T13:30:43;6.40;;;4.88;;
32347;SDS011;18821;44.800;10.326;2023-06-14T13:33:09;7.97;;;4.63;;
32347;SDS011;18821;44.800;10.326;2023-06-14T13:35:35;5.07;;;4.10;;
32347;SDS011;18821;44.800;10.326;2023-06-14T13:38:01;7.55;;;4.40;;
32347;SDS011;18821;44.800;10.326;2023-06-14T13:40:27;6.32;;;4.30;;
32347;SDS011;18821;44.800;10.326;2023-06-14T13:42:53;7.05;;;4.57;;
32347;SDS011;18821;44.800;10.326;2023-06-14T13:45:18;5.57;;;4.60;;
32347;SDS011;18821;44.800;10.326;2023-06-14T13:47:44;10.35;;;4.53;;
32347;SDS011;18821;44.800;10.326;2023-06-14T13:50:13;7.38;;;4.35;;
32347;SDS011;18821;44.800;10.326;2023-06-14T13:52:40;5.05;;;4.50;;
32347;SDS011;18821;44.800;10.326;2023-06-14T13:55:06;6.88;;;4.45;;
32347;SDS011;18821;44.800;10.326;2023-06-14T13:57:32;7.93;;;4.10;;
32347;SDS011;18821;44.800;10.326;2023-06-14T13:59:58;6.25;;;3.78;;
32347;SDS011;18821;44.800;10.326;2023-06-14T14:02:27;8.30;;;3.88;;
32347;SDS011;18821;44.800;10.326;2023-06-14T14:04:54;4.18;;;3.53;;
32347;SDS011;18821;44.800;10.326;2023-06-14T14:07:21;8.93;;;5.03;;
32347;SDS011;18821;44.800;10.326;2023-06-14T14:09:47;5.22;;;3.88;;
32347;SDS011;18821;44.800;10.326;2023-06-14T14:12:13;8.07;;;4.22;;
32347;SDS011;18821;44.800;10.326;2023-06-14T14:14:42;8.00;;;3.92;;
32347;SDS011;18821;44.800;10.326;2023-06-14T14:17:08;5.18;;;3.58;;
32347;SDS011;18821;44.800;10.326;2023-06-14T14:19:34;4.57;;;3.35;;
32347;SDS011;18821;44.800;10.326;2023-06-14T14:22:01;7.65;;;4.10;;
32347;SDS011;18821;44.800;10.326;2023-06-14T14:24:27;5.50;;;3.67;;
32347;SDS011;18821;44.800;10.326;2023-06-14T14:26:53;4.78;;;4.13;;
32347;SDS011;18821;44.800;10.326;2023-06-14T14:29:19;5.75;;;4.20;;
32347;SDS011;18821;44.800;10.326;2023-06-14T14:31:45;4.53;;;3.47;;
32347;SDS011;18821;44.800;10.326;2023-06-14T14:34:11;4.40;;;3.53;;
32347;SDS011;18821;44.800;10.326;2023-06-14T14:36:38;6.60;;;3.88;;
32347;SDS011;18821;44.800;10.326;2023-06-14T14:39:08;6.78;;;4.00;;